Time;durP1;ratioP1;P1;durP2;ratioP2;P2;SDS_P1;SDS_P2;PMS_P1;PMS_P2;Temp;Humidity;BMP_temperature;BMP_pressure;BME280_temperature;BME280_humidity;BME280_pressure;Samples;Min_cycle;Max_cycle;Signal;HPM_P1;HPM_P2
2021/01/19 00:02:40;;;;;;;3.63;3.33;;;3.60;99.50;;;;;;10256058;28;20214;-87
2021/01/19 00:07:42;;;;;;;3.30;3.10;;;3.60;99.40;;;;;;10293944;28;20291;-88
2021/01/19 00:12:44;;;;;;;4.53;3.40;;;3.60;99.20;;;;;;10264118;28;20254;-87
2021/01/19 00:17:46;;;;;;;3.77;3.47;;;3.60;98.90;;;;;;10270908;28;20251;-85
2021/01/19 00:22:48;;;;;;;3.83;3.40;;;3.50;99.50;;;;;;10255107;28;20205;-85
2021/01/19 00:27:50;;;;;;;4.23;3.20;;;3.50;99.10;;;;;;10235959;28;20728;-86
2021/01/19 00:32:52;;;;;;;4.40;3.70;;;3.50;99.10;;;;;;10241144;28;20428;-87
2021/01/19 00:37:56;;;;;;;3.40;3.10;;;3.50;99.20;;;;;;10261954;28;20236;-87
2021/01/19 00:42:58;;;;;;;3.67;3.13;;;3.40;99.30;;;;;;10269627;28;20295;-87
2021/01/19 00:48:08;;;;;;;5.13;3.47;;;3.40;99.40;;;;;;10279112;28;20315;-88
2021/01/19 00:53:10;;;;;;;7.07;4.00;;;3.40;99.00;;;;;;10273608;28;20215;-85
2021/01/19 00:58:14;;;;;;;4.10;3.30;;;3.40;99.40;;;;;;10257899;28;20282;-88
2021/01/19 01:03:18;;;;;;;5.63;3.37;;;3.50;98.80;;;;;;10251085;28;20624;-87
2021/01/19 01:08:19;;;;;;;5.27;3.40;;;3.40;98.70;;;;;;10263366;28;20236;-86
2021/01/19 01:13:21;;;;;;;3.37;3.17;;;3.40;99.00;;;;;;10243847;28;20208;-86
2021/01/19 01:18:26;;;;;;;3.27;2.80;;;3.40;98.60;;;;;;10225398;28;20235;-85
2021/01/19 01:23:28;;;;;;;3.37;3.07;;;3.30;98.50;;;;;;10262404;28;20227;-86
2021/01/19 01:28:29;;;;;;;2.97;2.80;;;3.30;98.70;;;;;;10250687;28;20239;-86
2021/01/19 01:33:32;;;;;;;3.93;3.10;;;3.30;98.60;;;;;;10250333;28;20200;-87
2021/01/19 01:38:34;;;;;;;3.73;2.67;;;3.30;98.60;;;;;;10240626;28;20252;-85
2021/01/19 01:43:35;;;;;;;3.30;3.00;;;3.30;98.70;;;;;;10256516;28;20274;-87
2021/01/19 01:48:39;;;;;;;3.00;2.80;;;3.30;98.50;;;;;;10242853;28;20235;-86
2021/01/19 01:53:41;;;;;;;3.73;3.20;;;3.30;98.90;;;;;;10255339;28;20267;-85
2021/01/19 01:58:43;;;;;;;3.27;3.07;;;3.30;98.60;;;;;;10258425;28;20310;-86
2021/01/19 02:03:46;;;;;;;3.00;2.80;;;3.20;98.70;;;;;;10257080;28;20211;-87
2021/01/19 02:09:00;;;;;;;3.50;3.20;;;3.20;99.00;;;;;;10265177;28;20609;-86
2021/01/19 02:14:11;;;;;;;3.57;3.27;;;3.20;98.80;;;;;;10291670;28;20691;-87
2021/01/19 02:19:29;;;;;;;4.27;3.10;;;3.20;98.90;;;;;;10229045;28;20224;-86
2021/01/19 02:24:36;;;;;;;3.60;3.30;;;3.20;99.20;;;;;;10233155;29;20210;-86
2021/01/19 02:30:02;;;;;;;3.57;3.37;;;3.20;99.40;;;;;;10256510;28;20229;-85
2021/01/19 02:35:13;;;;;;;3.20;2.90;;;3.20;99.40;;;;;;10237915;28;20192;-86
2021/01/19 02:40:18;;;;;;;5.20;3.40;;;3.30;99.80;;;;;;10248095;28;20232;-86
2021/01/19 02:45:20;;;;;;;3.63;3.33;;;3.30;99.20;;;;;;10297004;28;20192;-85
2021/01/19 02:50:23;;;;;;;3.13;2.87;;;3.20;99.40;;;;;;10280570;28;20230;-87
2021/01/19 02:55:25;;;;;;;3.30;3.00;;;3.10;99.30;;;;;;10290370;28;20200;-86
2021/01/19 03:00:34;;;;;;;3.50;3.20;;;3.10;99.70;;;;;;10288883;28;20231;-87
2021/01/19 03:05:39;;;;;;;3.10;2.90;;;3.10;99.60;;;;;;10277467;28;20227;-85
2021/01/19 03:10:42;;;;;;;3.07;2.87;;;3.00;99.90;;;;;;10270679;28;20430;-86
2021/01/19 03:15:44;;;;;;;3.50;3.03;;;3.10;99.80;;;;;;10265249;28;20208;-86
2021/01/19 03:20:48;;;;;;;2.93;2.73;;;3.20;99.50;;;;;;10293867;28;20724;-85
2021/01/19 03:25:50;;;;;;;3.73;2.80;;;3.30;98.70;;;;;;10263037;28;20263;-88
2021/01/19 03:30:52;;;;;;;3.10;2.80;;;3.40;98.40;;;;;;10288666;28;20212;-87
2021/01/19 03:35:55;;;;;;;2.93;2.57;;;3.50;98.30;;;;;;10283468;28;20557;-86
2021/01/19 03:40:56;;;;;;;3.57;2.93;;;3.50;98.30;;;;;;10300303;28;20224;-86
2021/01/19 03:45:58;;;;;;;2.87;2.50;;;3.50;98.00;;;;;;10280203;28;20211;-86
2021/01/19 03:51:09;;;;;;;3.07;2.87;;;3.50;97.70;;;;;;10297702;28;20220;-86
2021/01/19 03:56:11;;;;;;;3.50;3.20;;;3.50;97.40;;;;;;10234238;29;20237;-86
2021/01/19 04:01:12;;;;;;;4.63;2.80;;;3.50;97.60;;;;;;10256026;28;20271;-86
2021/01/19 04:06:15;;;;;;;4.80;3.20;;;3.50;97.50;;;;;;10287483;28;20710;-86
2021/01/19 04:11:16;;;;;;;2.83;2.53;;;3.50;97.50;;;;;;10283906;28;20208;-87
2021/01/19 04:16:18;;;;;;;2.63;2.43;;;3.50;97.70;;;;;;10284808;28;20196;-86
2021/01/19 04:21:23;;;;;;;3.03;2.83;;;3.50;97.40;;;;;;10250397;29;20217;-85
2021/01/19 04:26:25;;;;;;;2.90;2.70;;;3.50;97.30;;;;;;10263354;28;20210;-86
2021/01/19 04:31:27;;;;;;;2.40;2.13;;;3.40;97.00;;;;;;10292640;28;20287;-85
2021/01/19 04:36:29;;;;;;;3.30;3.00;;;3.40;97.10;;;;;;10263236;28;20208;-85
2021/01/19 04:41:33;;;;;;;3.20;2.87;;;3.30;97.50;;;;;;10277970;28;20224;-87
2021/01/19 04:46:35;;;;;;;3.37;3.07;;;3.20;97.40;;;;;;10289042;28;20231;-86
2021/01/19 04:51:39;;;;;;;2.63;2.43;;;3.20;97.50;;;;;;10269834;28;20226;-86
2021/01/19 04:56:54;;;;;;;2.90;2.70;;;3.10;97.50;;;;;;10264656;28;20282;-86
2021/01/19 05:02:41;;;;;;;3.00;2.77;;;3.10;97.30;;;;;;10267545;28;20303;-85
2021/01/19 05:08:13;;;;;;;3.87;3.57;;;3.10;97.50;;;;;;10264730;28;20231;-86
2021/01/19 05:13:16;;;;;;;3.20;2.90;;;3.10;97.80;;;;;;10199272;29;20213;-86
2021/01/19 05:18:18;;;;;;;3.20;2.90;;;3.10;97.60;;;;;;10275117;28;20224;-86
2021/01/19 05:23:22;;;;;;;2.90;2.70;;;3.10;97.50;;;;;;10245431;28;20208;-86
2021/01/19 05:28:29;;;;;;;3.40;3.10;;;3.10;97.20;;;;;;10205938;29;20224;-86
2021/01/19 05:33:31;;;;;;;3.37;3.13;;;3.10;97.00;;;;;;10241305;28;20219;-86
2021/01/19 05:38:45;;;;;;;3.20;3.00;;;3.10;97.10;;;;;;10248854;28;20319;-85
2021/01/19 05:43:47;;;;;;;3.00;2.70;;;3.10;97.10;;;;;;10279827;28;20227;-84
2021/01/19 05:48:53;;;;;;;3.13;2.87;;;3.10;97.10;;;;;;10275821;28;20220;-86
2021/01/19 05:53:56;;;;;;;3.33;3.03;;;3.10;97.50;;;;;;10266579;28;20274;-83
2021/01/19 05:58:59;;;;;;;3.60;3.40;;;3.00;97.10;;;;;;10276916;28;20235;-85
2021/01/19 06:04:02;;;;;;;4.43;3.60;;;3.00;98.00;;;;;;10269747;28;20307;-86
2021/01/19 06:09:05;;;;;;;3.50;3.20;;;3.00;98.30;;;;;;10272039;28;20775;-83
2021/01/19 06:14:07;;;;;;;4.53;3.30;;;3.10;97.50;;;;;;10249190;28;20669;-87
2021/01/19 06:19:09;;;;;;;3.73;3.40;;;3.20;98.20;;;;;;10267385;28;20247;-86
2021/01/19 06:24:12;;;;;;;3.20;2.93;;;3.20;97.40;;;;;;10265427;28;20212;-85
2021/01/19 06:29:23;;;;;;;4.10;2.90;;;3.20;97.10;;;;;;10279530;28;20231;-85
2021/01/19 06:34:30;;;;;;;3.17;2.97;;;3.30;97.00;;;;;;10272602;28;20207;-86
2021/01/19 06:39:41;;;;;;;2.90;2.70;;;3.30;96.80;;;;;;10241419;28;20252;-84
2021/01/19 06:44:46;;;;;;;3.73;2.90;;;3.30;96.70;;;;;;10269937;28;20204;-86
2021/01/19 06:49:47;;;;;;;3.93;2.90;;;3.30;97.10;;;;;;10289234;28;20236;-83
2021/01/19 06:55:23;;;;;;;3.30;3.07;;;3.30;97.50;;;;;;10311924;28;20207;-82
2021/01/19 07:00:25;;;;;;;5.23;2.67;;;3.30;96.40;;;;;;10257223;28;20591;-82
2021/01/19 07:05:30;;;;;;;2.70;2.50;;;3.20;96.10;;;;;;10260703;28;20201;-83
2021/01/19 07:10:49;;;;;;;3.50;3.20;;;3.10;96.20;;;;;;10265527;28;20233;-85
2021/01/19 07:16:21;;;;;;;3.57;3.27;;;3.10;96.30;;;;;;10244592;28;20208;-83
2021/01/19 07:21:26;;;;;;;3.93;3.40;;;3.00;96.20;;;;;;10251802;28;20322;-84
2021/01/19 07:26:35;;;;;;;5.40;3.60;;;3.00;96.40;;;;;;10288713;28;20267;-83
2021/01/19 07:31:37;;;;;;;5.23;3.83;;;2.90;96.10;;;;;;10255323;28;20522;-86
2021/01/19 07:36:39;;;;;;;4.73;3.40;;;2.90;96.00;;;;;;10298020;28;20224;-84
2021/01/19 07:41:42;;;;;;;3.70;3.43;;;2.80;96.00;;;;;;10294949;28;20228;-84
2021/01/19 07:46:43;;;;;;;3.97;3.13;;;2.60;96.40;;;;;;10260974;28;20225;-85
2021/01/19 07:51:47;;;;;;;3.30;3.10;;;2.60;96.30;;;;;;10274454;28;20205;-83
2021/01/19 07:56:49;;;;;;;4.27;3.33;;;2.60;96.20;;;;;;10273141;28;20235;-86
2021/01/19 08:01:55;;;;;;;3.40;3.13;;;2.60;96.30;;;;;;10248333;28;20242;-84
2021/01/19 08:06:57;;;;;;;5.50;3.73;;;2.70;96.30;;;;;;10251532;28;20224;-83
2021/01/19 08:12:07;;;;;;;4.23;3.83;;;2.80;96.50;;;;;;10272001;28;20205;-85
2021/01/19 08:17:11;;;;;;;5.13;3.80;;;2.90;96.40;;;;;;10255393;28;20231;-86
2021/01/19 08:22:23;;;;;;;5.17;4.07;;;3.00;96.00;;;;;;10255954;28;20272;-83
2021/01/19 08:27:26;;;;;;;5.23;3.63;;;3.20;96.20;;;;;;10255943;28;20708;-86
2021/01/19 08:32:29;;;;;;;3.40;3.10;;;3.30;96.90;;;;;;10261126;28;20268;-83
2021/01/19 08:37:31;;;;;;;6.67;6.07;;;3.50;95.60;;;;;;10248875;28;20307;-85
2021/01/19 08:42:34;;;;;;;3.80;3.37;;;3.60;95.60;;;;;;10257255;28;20255;-80
2021/01/19 08:47:37;;;;;;;6.00;3.77;;;3.70;95.30;;;;;;10241333;28;20716;-85
2021/01/19 08:52:38;;;;;;;3.73;3.43;;;3.80;95.10;;;;;;10277489;28;20577;-86
2021/01/19 08:57:43;;;;;;;10.63;4.57;;;3.90;95.40;;;;;;10280287;28;20235;-84
2021/01/19 09:02:45;;;;;;;5.80;3.87;;;4.10;94.70;;;;;;10284626;28;20204;-84
2021/01/19 09:07:46;;;;;;;3.90;3.07;;;4.20;94.40;;;;;;10281589;28;20235;-85
2021/01/19 09:12:50;;;;;;;3.70;3.40;;;4.20;94.80;;;;;;10248438;28;20208;-84
2021/01/19 09:17:54;;;;;;;4.10;3.80;;;4.40;94.20;;;;;;10248270;28;20244;-85
2021/01/19 09:23:07;;;;;;;3.53;2.97;;;4.50;94.40;;;;;;10281146;28;20581;-84
2021/01/19 09:28:09;;;;;;;4.77;3.60;;;4.70;94.90;;;;;;10285450;28;20248;-84
2021/01/19 09:33:13;;;;;;;4.43;4.03;;;4.70;93.90;;;;;;10289341;28;20299;-84
2021/01/19 09:38:17;;;;;;;7.27;2.90;;;4.70;93.50;;;;;;10293064;28;20246;-85
2021/01/19 09:43:21;;;;;;;3.27;3.07;;;4.80;94.10;;;;;;10275743;28;20232;-85
2021/01/19 09:48:24;;;;;;;6.60;4.07;;;4.80;94.10;;;;;;10302506;28;20648;-85
2021/01/19 09:53:32;;;;;;;7.23;4.10;;;4.80;93.90;;;;;;10305185;28;20302;-85
2021/01/19 09:58:34;;;;;;;3.83;3.53;;;4.80;94.30;;;;;;10302541;28;20224;-84
2021/01/19 10:03:36;;;;;;;3.70;3.40;;;4.90;94.40;;;;;;10270832;28;20212;-83
2021/01/19 10:08:38;;;;;;;5.00;4.43;;;5.00;94.30;;;;;;10289554;28;20592;-82
2021/01/19 10:13:41;;;;;;;4.03;3.50;;;5.10;94.60;;;;;;10269210;28;20207;-84
2021/01/19 10:18:43;;;;;;;3.20;2.73;;;5.20;93.90;;;;;;10277339;28;20299;-83
2021/01/19 10:23:49;;;;;;;4.27;3.87;;;5.20;94.50;;;;;;10264317;28;20296;-82
2021/01/19 10:28:55;;;;;;;6.20;3.40;;;5.20;94.70;;;;;;10277784;28;20219;-81
2021/01/19 10:34:01;;;;;;;3.57;3.23;;;5.30;94.60;;;;;;10266392;28;20210;-82
2021/01/19 10:39:07;;;;;;;5.73;3.43;;;5.30;94.60;;;;;;10249040;28;20228;-83
2021/01/19 10:44:12;;;;;;;3.47;3.27;;;5.20;94.80;;;;;;10268404;28;20201;-85
2021/01/19 10:49:16;;;;;;;5.93;4.43;;;5.20;94.90;;;;;;10295150;28;20223;-85
2021/01/19 10:54:19;;;;;;;4.83;3.13;;;5.20;94.90;;;;;;10276709;28;20299;-85
2021/01/19 10:59:21;;;;;;;3.43;3.10;;;5.30;94.00;;;;;;10266469;28;20259;-85
2021/01/19 11:04:23;;;;;;;4.43;3.37;;;5.20;94.30;;;;;;10266890;28;20661;-82
2021/01/19 11:09:25;;;;;;;4.10;3.63;;;5.10;94.90;;;;;;10288930;23;20246;-79
2021/01/19 11:14:27;;;;;;;3.97;3.63;;;5.20;94.60;;;;;;10281338;28;20208;-79
2021/01/19 11:19:29;;;;;;;3.63;3.33;;;5.30;94.20;;;;;;10273644;28;20217;-80
2021/01/19 11:24:31;;;;;;;5.33;3.50;;;5.30;93.90;;;;;;10273121;28;20754;-80
2021/01/19 11:29:33;;;;;;;4.00;3.70;;;5.30;94.20;;;;;;10259908;28;20252;-80
2021/01/19 11:34:35;;;;;;;3.60;3.30;;;5.30;94.30;;;;;;10287933;28;20232;-80
2021/01/19 11:39:36;;;;;;;5.17;4.17;;;5.30;93.80;;;;;;10290828;28;20234;-80
2021/01/19 11:44:39;;;;;;;4.57;2.90;;;5.30;94.00;;;;;;10289189;28;20227;-80
2021/01/19 11:49:40;;;;;;;4.20;3.87;;;5.30;93.40;;;;;;10293101;28;20235;-80
2021/01/19 11:54:42;;;;;;;4.90;4.40;;;5.20;94.20;;;;;;10298298;28;20228;-80
2021/01/19 11:59:45;;;;;;;7.30;3.97;;;5.30;93.80;;;;;;10293168;28;20287;-80
2021/01/19 12:04:46;;;;;;;4.67;4.00;;;5.40;93.50;;;;;;10281415;28;20200;-80
2021/01/19 12:09:48;;;;;;;4.20;3.60;;;5.40;93.50;;;;;;10263096;28;20255;-80
2021/01/19 12:14:50;;;;;;;3.13;2.93;;;5.50;93.80;;;;;;10256319;28;20299;-80
2021/01/19 12:19:52;;;;;;;4.73;3.60;;;5.50;93.40;;;;;;10259778;28;20280;-80
2021/01/19 12:24:54;;;;;;;4.90;3.67;;;5.60;94.10;;;;;;10267262;28;20648;-80
2021/01/19 12:29:56;;;;;;;3.77;3.30;;;5.70;94.00;;;;;;10282881;28;20717;-80
2021/01/19 12:34:58;;;;;;;4.10;3.40;;;5.80;93.50;;;;;;10302572;28;20200;-80
2021/01/19 12:39:59;;;;;;;3.77;3.13;;;5.90;93.90;;;;;;10285225;28;20246;-80
2021/01/19 12:45:03;;;;;;;3.07;2.77;;;5.90;93.50;;;;;;10262802;28;20278;-80
2021/01/19 12:50:06;;;;;;;3.40;3.03;;;6.00;93.30;;;;;;10270306;28;20736;-80
2021/01/19 12:55:09;;;;;;;4.23;3.40;;;6.10;93.40;;;;;;10280696;28;20211;-80
2021/01/19 13:00:13;;;;;;;4.50;3.20;;;6.00;94.40;;;;;;10264408;28;20224;-81
2021/01/19 13:05:15;;;;;;;3.80;2.87;;;6.00;95.10;;;;;;10262652;28;20607;-80
2021/01/19 13:10:17;;;;;;;3.23;2.93;;;6.00;94.90;;;;;;10276301;28;20220;-81
2021/01/19 13:15:19;;;;;;;3.87;3.47;;;5.90;95.40;;;;;;10283166;28;20200;-80
2021/01/19 13:20:21;;;;;;;3.53;3.23;;;5.90;95.70;;;;;;10279708;28;20235;-80
2021/01/19 13:25:23;;;;;;;4.27;3.20;;;5.90;95.60;;;;;;10280870;28;20199;-80
2021/01/19 13:30:26;;;;;;;4.70;3.30;;;5.90;95.70;;;;;;10263664;28;20228;-81
2021/01/19 13:35:28;;;;;;;4.03;2.37;;;5.90;95.70;;;;;;10297874;28;20287;-81
2021/01/19 13:40:30;;;;;;;2.53;2.33;;;5.90;95.60;;;;;;10292314;28;20294;-80
2021/01/19 13:45:32;;;;;;;2.00;1.90;;;6.00;96.30;;;;;;10291233;28;20305;-80
2021/01/19 13:50:34;;;;;;;4.00;2.90;;;6.10;96.20;;;;;;10277811;28;20768;-81
2021/01/19 13:55:36;;;;;;;2.30;1.80;;;6.10;96.20;;;;;;10239236;28;20212;-80
2021/01/19 14:00:38;;;;;;;2.40;1.33;;;6.10;96.20;;;;;;10263513;28;20627;-81
2021/01/19 14:05:40;;;;;;;2.10;1.40;;;6.10;96.20;;;;;;10269408;28;20540;-80
2021/01/19 14:10:44;;;;;;;1.90;1.70;;;6.20;95.30;;;;;;10279098;28;20259;-80
2021/01/19 14:15:47;;;;;;;3.87;1.90;;;6.30;95.10;;;;;;10282743;28;20204;-80
2021/01/19 14:20:48;;;;;;;2.00;1.57;;;6.20;94.90;;;;;;10292829;28;20236;-80
2021/01/19 14:25:50;;;;;;;2.30;1.30;;;6.20;95.30;;;;;;10293574;28;20333;-80
2021/01/19 14:30:52;;;;;;;1.83;1.70;;;6.20;95.10;;;;;;10286226;28;20220;-81
2021/01/19 14:35:54;;;;;;;1.73;1.63;;;6.30;95.10;;;;;;10289368;28;20246;-81
2021/01/19 14:41:00;;;;;;;1.93;1.73;;;6.30;95.00;;;;;;10293038;28;20318;-80
2021/01/19 14:46:03;;;;;;;2.20;1.60;;;6.30;95.30;;;;;;10292410;28;20513;-81
2021/01/19 14:51:05;;;;;;;2.30;1.40;;;6.30;94.90;;;;;;10293015;28;20223;-81
2021/01/19 14:56:06;;;;;;;1.37;1.27;;;6.30;95.00;;;;;;10294511;28;20377;-80
2021/01/19 15:01:09;;;;;;;2.97;1.30;;;6.40;95.00;;;;;;10295701;28;20567;-81
2021/01/19 15:06:11;;;;;;;1.97;1.50;;;6.40;94.80;;;;;;10284888;28;20204;-80
2021/01/19 15:11:13;;;;;;;2.60;1.63;;;6.30;95.20;;;;;;10305015;28;20235;-81
2021/01/19 15:16:15;;;;;;;2.27;1.97;;;6.40;95.60;;;;;;10290378;28;20810;-80
2021/01/19 15:21:17;;;;;;;1.33;1.23;;;6.40;96.50;;;;;;10267496;28;20264;-81
2021/01/19 15:26:18;;;;;;;1.20;1.03;;;6.40;95.90;;;;;;10289930;28;20219;-81
2021/01/19 15:31:21;;;;;;;1.97;1.40;;;6.30;96.00;;;;;;10293026;28;20234;-81
2021/01/19 15:36:27;;;;;;;1.60;1.50;;;6.40;95.70;;;;;;10269831;28;20214;-81
2021/01/19 15:41:29;;;;;;;1.60;1.50;;;6.40;95.90;;;;;;10268678;28;20674;-81
2021/01/19 15:46:34;;;;;;;1.50;1.40;;;6.50;95.80;;;;;;10250171;28;20207;-81
2021/01/19 15:51:36;;;;;;;1.47;1.37;;;6.50;95.60;;;;;;10276590;28;20222;-81
2021/01/19 15:56:39;;;;;;;1.67;1.30;;;6.40;95.70;;;;;;10278508;28;20205;-81
2021/01/19 16:01:44;;;;;;;1.93;1.80;;;6.30;96.00;;;;;;10275258;28;20303;-81
2021/01/19 16:06:46;;;;;;;1.53;1.40;;;6.30;95.60;;;;;;10252581;28;20306;-81
2021/01/19 16:11:48;;;;;;;1.50;1.40;;;6.30;95.70;;;;;;11066563;23;20375;-80
2021/01/19 16:16:52;;;;;;;1.67;1.43;;;6.30;96.20;;;;;;10263646;28;20243;-79
2021/01/19 16:21:54;;;;;;;1.77;1.50;;;6.20;96.20;;;;;;10277249;28;20727;-80
2021/01/19 16:26:56;;;;;;;1.47;1.37;;;6.20;96.40;;;;;;10282229;28;20636;-80
2021/01/19 16:31:59;;;;;;;2.30;1.20;;;6.20;95.70;;;;;;10262131;28;20226;-80
2021/01/19 16:37:01;;;;;;;1.53;1.43;;;6.20;95.70;;;;;;10269469;28;20298;-80
2021/01/19 16:42:05;;;;;;;1.93;1.80;;;6.20;95.80;;;;;;10277661;28;20731;-78
2021/01/19 16:47:08;;;;;;;1.20;1.20;;;6.10;95.90;;;;;;10293023;28;20204;-79
2021/01/19 16:52:09;;;;;;;1.40;1.30;;;6.20;95.80;;;;;;10298895;28;20220;-78
2021/01/19 16:57:11;;;;;;;1.60;1.50;;;6.10;95.60;;;;;;10280957;28;20219;-78
2021/01/19 17:03:04;;;;;;;1.40;1.30;;;6.10;95.30;;;;;;10257295;28;20231;-79
2021/01/19 17:13:54;;;;;;;1.70;1.60;;;6.10;95.90;;;;;;10200082;29;20249;-81
2021/01/19 17:18:56;;;;;;;2.60;1.53;;;6.10;96.10;;;;;;10223421;28;20283;-79
2021/01/19 17:23:58;;;;;;;3.67;1.50;;;6.10;96.20;;;;;;10280171;28;20367;-84
2021/01/19 17:29:00;;;;;;;1.57;1.40;;;6.20;96.20;;;;;;10252633;28;20207;-82
2021/01/19 17:34:02;;;;;;;2.97;2.77;;;6.30;96.80;;;;;;10259689;28;20274;-83
2021/01/19 17:39:05;;;;;;;1.70;1.60;;;6.30;96.80;;;;;;10220937;28;20239;-83
2021/01/19 17:44:10;;;;;;;2.00;1.90;;;6.30;97.40;;;;;;10259226;28;20550;-86
2021/01/19 17:49:12;;;;;;;1.90;1.80;;;6.20;98.70;;;;;;10239048;28;20246;-83
2021/01/19 17:54:16;;;;;;;1.77;1.67;;;6.10;99.70;;;;;;10265307;28;20730;-85
2021/01/19 17:59:19;;;;;;;2.33;2.13;;;6.10;99.90;;;;;;10263632;28;20712;-85
2021/01/19 18:04:21;;;;;;;2.33;2.13;;;6.10;99.90;;;;;;10245094;28;20290;-82
2021/01/19 18:09:22;;;;;;;2.40;2.20;;;6.10;99.90;;;;;;10228771;28;20654;-83
2021/01/19 18:14:25;;;;;;;1.70;1.60;;;6.10;99.90;;;;;;10236377;28;20212;-84
2021/01/19 18:19:27;;;;;;;1.70;1.60;;;6.20;99.90;;;;;;10238513;28;20239;-84
2021/01/19 18:24:29;;;;;;;1.73;1.63;;;6.10;99.10;;;;;;10238969;28;20212;-85
2021/01/19 18:29:31;;;;;;;4.07;1.97;;;6.10;98.60;;;;;;10225551;28;20220;-81
2021/01/19 18:34:34;;;;;;;2.47;2.10;;;6.10;98.50;;;;;;10250476;28;20219;-83
2021/01/19 18:39:45;;;;;;;2.70;2.20;;;6.00;98.30;;;;;;10268741;28;20239;-85
2021/01/19 18:44:48;;;;;;;1.67;1.57;;;5.90;97.60;;;;;;10293885;28;20216;-82
2021/01/19 18:49:50;;;;;;;2.73;2.13;;;5.70;97.30;;;;;;10273991;28;20676;-83
2021/01/19 18:54:51;;;;;;;2.20;2.00;;;5.60;97.40;;;;;;10286178;28;20238;-83
2021/01/19 18:59:54;;;;;;;1.97;1.87;;;5.60;97.10;;;;;;10259549;28;20223;-82
2021/01/19 19:04:56;;;;;;;2.20;1.63;;;5.60;96.70;;;;;;10253271;28;20243;-82
2021/01/19 19:10:00;;;;;;;2.60;2.40;;;5.70;95.90;;;;;;10254548;28;20699;-81
2021/01/19 19:15:03;;;;;;;2.77;2.57;;;5.80;95.50;;;;;;10270868;28;20238;-82
2021/01/19 19:20:06;;;;;;;2.70;2.47;;;5.90;95.90;;;;;;10285804;28;20315;-82
2021/01/19 19:25:09;;;;;;;2.03;1.90;;;6.00;95.90;;;;;;10264977;28;20305;-82
2021/01/19 19:30:14;;;;;;;2.10;1.90;;;6.10;94.70;;;;;;10249143;28;20226;-81
2021/01/19 19:35:15;;;;;;;2.20;2.10;;;6.10;94.50;;;;;;10274285;28;20212;-82
2021/01/19 19:40:17;;;;;;;1.80;1.67;;;6.20;94.10;;;;;;10273652;28;20239;-82
2021/01/19 19:45:20;;;;;;;2.40;2.30;;;6.20;94.00;;;;;;10274159;28;20210;-83
2021/01/19 19:50:21;;;;;;;2.53;2.03;;;6.20;93.50;;;;;;10261104;28;20224;-83
2021/01/19 19:55:26;;;;;;;2.00;1.90;;;6.20;92.90;;;;;;10261123;28;20204;-82
2021/01/19 20:00:29;;;;;;;1.90;1.80;;;6.20;93.20;;;;;;10285941;28;20226;-83
2021/01/19 20:05:30;;;;;;;1.83;1.73;;;6.20;93.50;;;;;;10265200;28;20316;-81
2021/01/19 20:10:32;;;;;;;3.60;1.83;;;6.20;92.60;;;;;;10262393;28;20582;-82
2021/01/19 20:15:35;;;;;;;2.13;1.93;;;6.20;93.50;;;;;;10274745;28;20299;-83
2021/01/19 20:20:36;;;;;;;1.90;1.80;;;6.20;92.60;;;;;;10223455;28;20305;-82
2021/01/19 20:25:42;;;;;;;2.10;2.00;;;6.10;92.60;;;;;;10249771;28;20513;-82
2021/01/19 20:30:44;;;;;;;2.10;2.00;;;6.00;91.80;;;;;;10247581;28;20691;-81
2021/01/19 20:35:46;;;;;;;1.90;1.80;;;6.00;92.20;;;;;;10263009;28;20208;-81
2021/01/19 20:40:52;;;;;;;2.03;1.90;;;5.90;91.40;;;;;;10250534;28;20240;-83
2021/01/19 20:45:57;;;;;;;2.00;1.87;;;6.00;91.20;;;;;;10260816;28;20692;-82
2021/01/19 20:50:58;;;;;;;1.90;1.80;;;6.00;90.10;;;;;;10278573;28;20788;-81
2021/01/19 20:56:00;;;;;;;1.50;1.40;;;6.00;91.00;;;;;;10252317;28;20535;-82
2021/01/19 21:01:03;;;;;;;2.10;2.00;;;6.00;90.10;;;;;;10268303;28;20687;-81
2021/01/19 21:06:05;;;;;;;1.90;1.80;;;6.00;89.30;;;;;;10248165;28;20209;-80
2021/01/19 21:11:07;;;;;;;1.63;1.53;;;6.00;89.00;;;;;;10245003;28;20236;-81
2021/01/19 21:16:10;;;;;;;1.63;1.57;;;6.00;89.60;;;;;;10262054;28;20210;-83
2021/01/19 21:21:16;;;;;;;1.80;1.70;;;5.90;88.20;;;;;;10239549;28;20231;-84
2021/01/19 21:26:18;;;;;;;1.87;1.77;;;5.90;87.80;;;;;;10263417;28;20215;-81
2021/01/19 21:31:20;;;;;;;1.93;1.83;;;6.00;87.30;;;;;;10261984;28;20251;-82
2021/01/19 21:36:22;;;;;;;1.73;1.63;;;5.90;87.60;;;;;;10248218;28;20724;-81
2021/01/19 21:41:24;;;;;;;1.50;1.40;;;5.90;87.00;;;;;;10228602;28;20235;-80
2021/01/19 21:46:26;;;;;;;1.87;1.77;;;6.00;86.40;;;;;;10250368;28;20219;-81
2021/01/19 21:51:28;;;;;;;1.80;1.70;;;5.90;87.10;;;;;;10236955;28;20215;-81
2021/01/19 21:56:30;;;;;;;1.80;1.70;;;5.90;86.80;;;;;;10243785;28;20256;-82
2021/01/19 22:01:32;;;;;;;2.93;1.73;;;5.90;86.20;;;;;;10259699;28;20243;-83
2021/01/19 22:06:34;;;;;;;1.50;1.40;;;5.90;86.40;;;;;;10256007;28;20228;-83
2021/01/19 22:11:35;;;;;;;1.80;1.70;;;5.90;85.90;;;;;;10269465;28;20262;-82
2021/01/19 22:16:38;;;;;;;1.93;1.83;;;5.90;85.40;;;;;;10298011;28;20196;-80
2021/01/19 22:21:40;;;;;;;3.73;1.60;;;5.90;84.30;;;;;;10293362;28;20231;-83
2021/01/19 22:26:41;;;;;;;1.90;1.80;;;5.90;84.60;;;;;;10292060;28;20311;-83
2021/01/19 22:31:44;;;;;;;1.73;1.50;;;5.90;84.60;;;;;;10285334;28;20775;-82
2021/01/19 22:36:45;;;;;;;1.80;1.70;;;5.80;85.70;;;;;;10284042;28;20212;-82
2021/01/19 22:41:47;;;;;;;1.80;1.70;;;5.70;86.00;;;;;;10268908;28;20223;-83
2021/01/19 22:46:51;;;;;;;1.90;1.80;;;5.70;86.40;;;;;;10286884;28;20642;-83
2021/01/19 22:51:52;;;;;;;1.93;1.83;;;5.70;85.90;;;;;;10269554;28;20220;-83
2021/01/19 22:56:54;;;;;;;2.20;2.00;;;5.70;86.40;;;;;;10284664;28;20696;-82
2021/01/19 23:01:57;;;;;;;2.40;2.20;;;5.70;87.80;;;;;;10282402;28;20388;-82
2021/01/19 23:06:58;;;;;;;1.90;1.80;;;5.70;87.20;;;;;;10275480;28;20205;-83
2021/01/19 23:12:00;;;;;;;1.70;1.60;;;5.70;89.60;;;;;;10302692;28;20224;-82
2021/01/19 23:17:03;;;;;;;1.93;1.73;;;5.70;89.90;;;;;;10279649;28;20227;-83
2021/01/19 23:22:04;;;;;;;2.00;1.73;;;5.70;90.50;;;;;;10265812;28;20630;-82
2021/01/19 23:27:06;;;;;;;2.00;1.90;;;5.70;90.80;;;;;;10254230;28;20240;-82
2021/01/19 23:32:09;;;;;;;2.00;1.90;;;5.60;91.20;;;;;;10273606;28;20244;-83
2021/01/19 23:37:11;;;;;;;2.00;1.90;;;5.70;91.70;;;;;;10273054;28;20263;-82
2021/01/19 23:42:12;;;;;;;1.90;1.80;;;5.70;90.90;;;;;;10257675;28;20247;-83
2021/01/19 23:47:15;;;;;;;1.90;1.80;;;5.70;90.70;;;;;;10257940;28;20204;-83
2021/01/19 23:52:16;;;;;;;2.10;2.00;;;5.70;90.40;;;;;;10274611;28;20230;-83
2021/01/19 23:57:18;;;;;;;1.73;1.63;;;5.70;90.80;;;;;;10274793;28;20192;-84
